Blue Bay — V2CE6 — position and weather

sailwx.info

Track history (hours):
 
Tides and Currents Weather Stations Pressure Air Temp Water Temp Dewpoint Dewpoint Depression Visibility Wind Speed Wind Dir Waves Ship Positions

Blue Bay

Last reported at 2015-Jul-29 15:08 UTC. Time now 2015-Aug-02 02:21 UTC.
Position N 50°32' W 000°02'.

Length 89 m; draft 5.5 m.

Type: Cargo ship. MMSI: 304519000.

Date/timePositionNaut miles runAvg speedWind from/ knotsBaromVisibWave heightAir tempDewpointWater temp
2015-Jul-29 15:08N 50°32' W 000°02'610.1
2015-Jul-29 14:32N 50°33' E 000°07'1010.3
2015-Jul-29 13:33N 50°36' E 000°22'10 9.9
2015-Jul-29 12:33N 50°39' E 000°37'9 9.4
2015-Jul-29 11:33N 50°45' E 000°49'9 8.6
2015-Jul-29 10:33N 50°50' E 001°00'9 8.2
2015-Jul-29 09:30N 50°55' E 001°11'8 8.1
2015-Jul-29 08:33N 51°00' E 001°19'9 9.0
2015-Jul-29 07:33N 51°06' E 001°31'1110.7
2015-Jul-29 06:33N 51°13' E 001°44'1111.4
2015-Jul-29 05:33N 51°22' E 001°54'1110.8
2015-Jul-29 04:33N 51°31' E 002°05'10 9.9
2015-Jul-29 03:33N 51°38' E 002°16'45 7.2
2015-Jul-28 21:14N 52°03' E 003°18'7 7.7
2015-Jul-28 20:17N 52°03' E 003°29'6 7.7
2015-Jul-28 19:33N 52°03' E 003°39'7 7.5
2015-Jul-28 18:33N 52°03' E 003°51'7 7.4
2015-Jul-28 17:33N 51°60' E 004°02'1111.3
2015-Jul-28 16:33N 51°54' E 004°17'1 0.7
2015-Jul-28 15:31N 51°53' E 004°17'0 0.0
2015-Jul-28 14:33N 51°53' E 004°17'0 0.0
2015-Jul-28 13:33N 51°53' E 004°17'0 0.0
2015-Jul-28 12:33N 51°53' E 004°17'0 0.0
2015-Jul-28 11:33N 51°53' E 004°17'0 0.0
2015-Jul-28 10:33N 51°53' E 004°17'0 0.0
2015-Jul-28 09:33N 51°53' E 004°17'0 0.0
2015-Jul-28 08:33N 51°53' E 004°17'0 0.0
2015-Jul-28 07:33N 51°53' E 004°17'0 0.0
2015-Jul-28 06:33N 51°53' E 004°17'0 0.0
2015-Jul-28 05:34N 51°53' E 004°17'0 0.0
2015-Jul-28 04:33N 51°53' E 004°17'1 1.1
2015-Jul-28 03:33N 51°53' E 004°18'8 8.4
2015-Jul-28 02:33N 51°58' E 004°07'9 9.1
2015-Jul-28 01:33N 52°02' E 003°54'8 7.7
2015-Jul-28 00:33N 51°57' E 003°45'0 0.0
2015-Jul-27 23:33N 51°57' E 003°45'0 0.0
2015-Jul-27 22:33N 51°57' E 003°45'0 0.1
2015-Jul-27 21:34N 51°57' E 003°45'0 0.1
2015-Jul-27 20:33N 51°57' E 003°45'0 0.0
2015-Jul-27 19:33N 51°57' E 003°45'0 0.0
2015-Jul-27 18:33N 51°57' E 003°45'0 0.0
2015-Jul-27 17:33N 51°57' E 003°45'0 0.0
2015-Jul-27 16:33N 51°57' E 003°45'0 0.0
2015-Jul-27 15:33N 51°57' E 003°45'0 0.0
2015-Jul-27 14:33N 51°57' E 003°44'0 0.0
2015-Jul-27 13:33N 51°57' E 003°44'0 0.0
2015-Jul-27 12:33N 51°57' E 003°44'0 0.1
2015-Jul-27 11:33N 51°57' E 003°44'0 0.1
2015-Jul-27 10:34N 51°57' E 003°44'0 0.1
2015-Jul-27 09:33N 51°57' E 003°44'0 0.1
2015-Jul-27 08:33N 51°57' E 003°44'0 0.1
2015-Jul-27 07:33N 51°56' E 003°44'0 0.0
2015-Jul-27 06:34N 51°57' E 003°44'0 0.0
2015-Jul-27 05:33N 51°57' E 003°44'0 0.0
2015-Jul-27 04:33N 51°57' E 003°44'0 0.0
2015-Jul-27 03:33N 51°57' E 003°44'0 0.0
2015-Jul-27 02:33N 51°57' E 003°44'0 0.0
2015-Jul-27 01:33N 51°57' E 003°44'0 0.1
2015-Jul-27 00:33N 51°57' E 003°44'0 0.0
2015-Jul-26 23:33N 51°57' E 003°44'0 0.0
2015-Jul-26 22:33N 51°57' E 003°44'0 0.0
2015-Jul-26 21:34N 51°57' E 003°44'0 0.0
2015-Jul-26 20:33N 51°57' E 003°44'0 0.0
2015-Jul-26 19:33N 51°57' E 003°44'0 0.0
2015-Jul-26 18:33N 51°57' E 003°44'0 0.0
2015-Jul-26 17:33N 51°56' E 003°44'0 0.0
2015-Jul-26 16:33N 51°56' E 003°44'0 0.0
2015-Jul-26 15:34N 51°56' E 003°44'0 0.0
2015-Jul-26 14:33N 51°56' E 003°44'0 0.0
2015-Jul-26 13:33N 51°56' E 003°44'0 0.0
2015-Jul-26 12:33N 51°56' E 003°44'0 0.0
2015-Jul-26 11:34N 51°56' E 003°44'0 0.0
2015-Jul-26 10:33N 51°56' E 003°44'0 0.0
2015-Jul-26 09:33N 51°56' E 003°44'0 0.0
2015-Jul-26 08:34N 51°56' E 003°44'0 0.0
2015-Jul-26 07:34N 51°56' E 003°44'0 0.0
2015-Jul-26 06:33N 51°56' E 003°44'0 0.1
2015-Jul-26 05:34N 51°56' E 003°44'0 0.1
2015-Jul-26 04:33N 51°56' E 003°44'0 0.0
2015-Jul-26 03:33N 51°56' E 003°44'0 0.0
2015-Jul-26 02:33N 51°56' E 003°44'0 0.0
2015-Jul-26 01:33N 51°56' E 003°44'0 0.0
2015-Jul-26 00:33N 51°56' E 003°44'0 0.0
2015-Jul-25 23:33N 51°56' E 003°44'0 0.0
2015-Jul-25 22:34N 51°56' E 003°44'0 0.0
2015-Jul-25 21:34N 51°56' E 003°44'0 0.0
2015-Jul-25 20:33N 51°56' E 003°44'0 0.0
2015-Jul-25 19:34N 51°56' E 003°44'0 0.3
2015-Jul-25 18:33N 51°57' E 003°44'7 7.2
2015-Jul-25 17:33N 51°56' E 003°32'44 5.4
2015-Jul-25 09:29N 51°30' E 002°35'5 4.9
2015-Jul-25 08:34N 51°25' E 002°34'5 4.2
2015-Jul-25 07:29N 51°21' E 002°33'1 0.9
2015-Jul-25 06:33N 51°20' E 002°32'0 0.1
2015-Jul-25 05:33N 51°20' E 002°32'0 0.2
2015-Jul-25 04:28N 51°20' E 002°32'0 0.4
2015-Jul-25 03:31N 51°20' E 002°32'0 0.0
2015-Jul-25 02:28N 51°20' E 002°31'0 0.1
2015-Jul-25 01:28N 51°20' E 002°31'0 0.0
2015-Jul-25 00:31N 51°20' E 002°31'0 0.1
2015-Jul-24 23:31N 51°20' E 002°31'0 0.0
2015-Jul-24 22:31N 51°20' E 002°31'0 0.0
2015-Jul-24 21:28N 51°20' E 002°31'0 0.1
2015-Jul-24 20:31N 51°20' E 002°31'0 0.1
2015-Jul-24 19:31N 51°20' E 002°31'0 0.0
2015-Jul-24 18:31N 51°20' E 002°31'0 0.0
2015-Jul-24 17:31N 51°20' E 002°31'0 0.0
2015-Jul-24 16:28N 51°20' E 002°31'0 0.0
2015-Jul-24 15:31N 51°20' E 002°31'0 0.0
2015-Jul-24 14:31N 51°20' E 002°31'0 0.0
2015-Jul-24 13:31N 51°20' E 002°31'0 0.0
2015-Jul-24 12:31N 51°20' E 002°31'0 0.0
2015-Jul-24 11:31N 51°20' E 002°31'0 0.0
2015-Jul-24 10:31N 51°20' E 002°31'0 0.0
2015-Jul-24 09:31N 51°20' E 002°31'0 0.0
2015-Jul-24 08:28N 51°20' E 002°31'0 0.0
2015-Jul-24 07:31N 51°20' E 002°31'0 0.0
2015-Jul-24 06:31N 51°20' E 002°32'0 0.0
2015-Jul-24 05:28N 51°20' E 002°32'0 0.0
2015-Jul-24 04:31N 51°20' E 002°32'0 0.0
2015-Jul-24 03:31N 51°20' E 002°32'0 0.1
2015-Jul-24 02:31N 51°20' E 002°31'0 0.0
2015-Jul-24 01:31N 51°20' E 002°31'0 0.0
2015-Jul-24 00:31N 51°20' E 002°31'0 0.0
2015-Jul-23 23:31N 51°20' E 002°31'0 0.1
2015-Jul-23 22:28N 51°20' E 002°32'0 0.0
2015-Jul-23 21:28N 51°20' E 002°32'0 0.0
2015-Jul-23 20:28N 51°20' E 002°32'0 0.0
2015-Jul-23 19:31N 51°20' E 002°32'0 0.0
2015-Jul-23 18:31N 51°20' E 002°32'0 0.0
2015-Jul-23 17:31N 51°20' E 002°32'0 0.0
2015-Jul-23 16:28N 51°20' E 002°32'0 0.0
2015-Jul-23 15:25N 51°20' E 002°32'0 0.0
2015-Jul-23 14:31N 51°20' E 002°32'0 0.1
2015-Jul-23 13:31N 51°20' E 002°31'0 0.0
2015-Jul-23 12:31N 51°20' E 002°31'0 0.0
2015-Jul-23 11:31N 51°20' E 002°31'0 0.0
2015-Jul-23 10:31N 51°20' E 002°31'0 0.0
2015-Jul-23 09:31N 51°20' E 002°31'0 0.1
2015-Jul-23 08:31N 51°20' E 002°32'0 0.0
2015-Jul-23 07:31N 51°20' E 002°32'0 0.0
2015-Jul-23 06:31N 51°20' E 002°32'0 0.0
2015-Jul-23 05:13N 51°20' E 002°32'0 0.0
2015-Jul-23 04:28N 51°20' E 002°32'0 0.0
2015-Jul-23 03:31N 51°20' E 002°32'0 0.0
2015-Jul-23 02:31N 51°20' E 002°32'0 0.1
2015-Jul-23 01:31N 51°20' E 002°31'0 0.0
2015-Jul-23 00:31N 51°20' E 002°31'0 0.0
2015-Jul-22 23:31N 51°20' E 002°31'0 0.1
2015-Jul-22 22:28N 51°20' E 002°32'0 0.0
2015-Jul-22 21:31N 51°20' E 002°32'0 0.0
2015-Jul-22 20:28N 51°20' E 002°32'0 0.0
2015-Jul-22 19:31N 51°20' E 002°32'0 0.0
2015-Jul-22 18:31N 51°20' E 002°32'0 0.0
2015-Jul-22 17:31N 51°20' E 002°32'0 0.0
2015-Jul-22 16:28N 51°20' E 002°32'0 0.0
2015-Jul-22 15:33N 51°20' E 002°32'0 0.0
2015-Jul-22 14:33N 51°20' E 002°32'0 0.0
2015-Jul-22 13:33N 51°20' E 002°32'0 0.1
2015-Jul-22 12:33N 51°20' E 002°31'0 0.0
2015-Jul-22 11:33N 51°20' E 002°31'0 0.0
2015-Jul-22 10:33N 51°20' E 002°31'0 0.1
2015-Jul-22 09:33N 51°20' E 002°32'0 0.0
2015-Jul-22 08:33N 51°20' E 002°32'0 0.0
2015-Jul-22 07:24N 51°20' E 002°32'0 0.0
2015-Jul-22 06:33N 51°20' E 002°32'0 0.0
2015-Jul-22 05:33N 51°20' E 002°32'0 0.0
2015-Jul-22 04:33N 51°20' E 002°32'0 0.0
2015-Jul-22 03:30N 51°20' E 002°32'0 0.0
2015-Jul-22 02:33N 51°20' E 002°32'0 0.0
2015-Jul-22 01:33N 51°20' E 002°32'0 0.1
2015-Jul-22 00:33N 51°20' E 002°31'0 0.0
2015-Jul-21 23:33N 51°20' E 002°31'0 0.1
2015-Jul-21 22:33N 51°20' E 002°32'0 0.0
2015-Jul-21 21:33N 51°20' E 002°32'0 0.0
2015-Jul-21 20:33N 51°20' E 002°32'0 0.0
2015-Jul-21 19:33N 51°20' E 002°32'0 0.0
2015-Jul-21 18:33N 51°20' E 002°32'0 0.0
2015-Jul-21 17:33N 51°20' E 002°32'0 0.0
2015-Jul-21 16:33N 51°20' E 002°32'0 0.0
2015-Jul-21 15:33N 51°20' E 002°32'0 0.0
2015-Jul-21 14:33N 51°20' E 002°32'0 0.0
2015-Jul-21 13:30N 51°20' E 002°32'3 2.8
2015-Jul-21 12:33N 51°20' E 002°36'1110.9
2015-Jul-21 11:33N 51°22' E 002°53'1211.9
2015-Jul-21 10:34N 51°23' E 003°12'1312.5
2015-Jul-21 09:33N 51°25' E 003°31'7 6.5
2015-Jul-21 08:31N 51°27' E 003°42'0 0.0
2015-Jul-21 07:31N 51°27' E 003°42'0 0.0
2015-Jul-21 06:31N 51°27' E 003°42'0 0.0
2015-Jul-21 05:31N 51°27' E 003°42'0 0.0
2015-Jul-21 04:34N 51°27' E 003°42'0 0.0
2015-Jul-21 03:34N 51°27' E 003°42'0 0.0
2015-Jul-21 02:33N 51°27' E 003°42'0 0.0
2015-Jul-21 01:34N 51°27' E 003°42'0 0.0
2015-Jul-21 00:34N 51°27' E 003°42'0 0.0
2015-Jul-20 23:34N 51°27' E 003°42'0 0.0
2015-Jul-20 22:34N 51°27' E 003°42'0 0.0
2015-Jul-20 21:34N 51°27' E 003°42'0 0.0
2015-Jul-20 20:34N 51°27' E 003°42'0 0.0
2015-Jul-20 19:34N 51°27' E 003°42'1 1.2
2015-Jul-20 18:34N 51°27' E 003°40'8 8.5
2015-Jul-20 17:33N 51°25' E 003°27'1110.6
2015-Jul-20 16:33N 51°24' E 003°10'1111.2
2015-Jul-20 15:33N 51°22' E 002°52'7 7.5
2015-Jul-20 14:33N 51°22' E 002°40'8 8.2
2015-Jul-20 13:31N 51°21' E 002°27'1010.3
2015-Jul-20 12:34N 51°16' E 002°13'9 9.1
2015-Jul-20 11:33N 51°11' E 002°01'8 7.9
2015-Jul-20 10:33N 51°07' E 001°50'7 7.2
2015-Jul-20 09:33N 51°02' E 001°41'7 7.1
2015-Jul-20 08:34N 50°57' E 001°34'108 9.8
2015-Jul-19 21:27N 50°08' W 000°58'1112.7
2015-Jul-19 20:33N 50°05' W 001°16'1211.5
2015-Jul-19 19:33N 50°02' W 001°33'1010.0
2015-Jul-19 18:33N 49°60' W 001°48'9 8.4
2015-Jul-19 17:32N 49°57' W 002°01'7 7.0
2015-Jul-19 16:33N 49°55' W 002°11'  
Track history (hours):
 
Tides and Currents Weather Stations Pressure Air Temp Water Temp Dewpoint Dewpoint Depression Visibility Wind Speed Wind Dir Waves Ship Positions

Blue Bay

Last reported at 2015-Jul-29 15:08 UTC. Time now 2015-Aug-02 02:21 UTC.
Position N 50°32' W 000°02'.

Length 89 m; draft 5.5 m.

Type: Cargo ship. MMSI: 304519000.

Date/timePositionNaut miles runAvg speedWind from/ knotsBaromVisibWave heightAir tempDewpointWater temp
2015-Jul-29 15:08N 50°32' W 000°02'610.1
2015-Jul-29 14:32N 50°33' E 000°07'1010.3
2015-Jul-29 13:33N 50°36' E 000°22'10 9.9
2015-Jul-29 12:33N 50°39' E 000°37'9 9.4
2015-Jul-29 11:33N 50°45' E 000°49'9 8.6
2015-Jul-29 10:33N 50°50' E 001°00'9 8.2
2015-Jul-29 09:30N 50°55' E 001°11'8 8.1
2015-Jul-29 08:33N 51°00' E 001°19'9 9.0
2015-Jul-29 07:33N 51°06' E 001°31'1110.7
2015-Jul-29 06:33N 51°13' E 001°44'1111.4
2015-Jul-29 05:33N 51°22' E 001°54'1110.8
2015-Jul-29 04:33N 51°31' E 002°05'10 9.9
2015-Jul-29 03:33N 51°38' E 002°16'45 7.2
2015-Jul-28 21:14N 52°03' E 003°18'7 7.7
2015-Jul-28 20:17N 52°03' E 003°29'6 7.7
2015-Jul-28 19:33N 52°03' E 003°39'7 7.5
2015-Jul-28 18:33N 52°03' E 003°51'7 7.4
2015-Jul-28 17:33N 51°60' E 004°02'1111.3
2015-Jul-28 16:33N 51°54' E 004°17'1 0.7
2015-Jul-28 15:31N 51°53' E 004°17'0 0.0
2015-Jul-28 14:33N 51°53' E 004°17'0 0.0
2015-Jul-28 13:33N 51°53' E 004°17'0 0.0
2015-Jul-28 12:33N 51°53' E 004°17'0 0.0
2015-Jul-28 11:33N 51°53' E 004°17'0 0.0
2015-Jul-28 10:33N 51°53' E 004°17'0 0.0
2015-Jul-28 09:33N 51°53' E 004°17'0 0.0
2015-Jul-28 08:33N 51°53' E 004°17'0 0.0
2015-Jul-28 07:33N 51°53' E 004°17'0 0.0
2015-Jul-28 06:33N 51°53' E 004°17'0 0.0
2015-Jul-28 05:34N 51°53' E 004°17'0 0.0
2015-Jul-28 04:33N 51°53' E 004°17'1 1.1
2015-Jul-28 03:33N 51°53' E 004°18'8 8.4
2015-Jul-28 02:33N 51°58' E 004°07'9 9.1
2015-Jul-28 01:33N 52°02' E 003°54'8 7.7
2015-Jul-28 00:33N 51°57' E 003°45'0 0.0
2015-Jul-27 23:33N 51°57' E 003°45'0 0.0
2015-Jul-27 22:33N 51°57' E 003°45'0 0.1
2015-Jul-27 21:34N 51°57' E 003°45'0 0.1
2015-Jul-27 20:33N 51°57' E 003°45'0 0.0
2015-Jul-27 19:33N 51°57' E 003°45'0 0.0
2015-Jul-27 18:33N 51°57' E 003°45'0 0.0
2015-Jul-27 17:33N 51°57' E 003°45'0 0.0
2015-Jul-27 16:33N 51°57' E 003°45'0 0.0
2015-Jul-27 15:33N 51°57' E 003°45'0 0.0
2015-Jul-27 14:33N 51°57' E 003°44'0 0.0
2015-Jul-27 13:33N 51°57' E 003°44'0 0.0
2015-Jul-27 12:33N 51°57' E 003°44'0 0.1
2015-Jul-27 11:33N 51°57' E 003°44'0 0.1
2015-Jul-27 10:34N 51°57' E 003°44'0 0.1
2015-Jul-27 09:33N 51°57' E 003°44'0 0.1
2015-Jul-27 08:33N 51°57' E 003°44'0 0.1
2015-Jul-27 07:33N 51°56' E 003°44'0 0.0
2015-Jul-27 06:34N 51°57' E 003°44'0 0.0
2015-Jul-27 05:33N 51°57' E 003°44'0 0.0
2015-Jul-27 04:33N 51°57' E 003°44'0 0.0
2015-Jul-27 03:33N 51°57' E 003°44'0 0.0
2015-Jul-27 02:33N 51°57' E 003°44'0 0.0
2015-Jul-27 01:33N 51°57' E 003°44'0 0.1
2015-Jul-27 00:33N 51°57' E 003°44'0 0.0
2015-Jul-26 23:33N 51°57' E 003°44'0 0.0
2015-Jul-26 22:33N 51°57' E 003°44'0 0.0
2015-Jul-26 21:34N 51°57' E 003°44'0 0.0
2015-Jul-26 20:33N 51°57' E 003°44'0 0.0
2015-Jul-26 19:33N 51°57' E 003°44'0 0.0
2015-Jul-26 18:33N 51°57' E 003°44'0 0.0
2015-Jul-26 17:33N 51°56' E 003°44'0 0.0
2015-Jul-26 16:33N 51°56' E 003°44'0 0.0
2015-Jul-26 15:34N 51°56' E 003°44'0 0.0
2015-Jul-26 14:33N 51°56' E 003°44'0 0.0
2015-Jul-26 13:33N 51°56' E 003°44'0 0.0
2015-Jul-26 12:33N 51°56' E 003°44'0 0.0
2015-Jul-26 11:34N 51°56' E 003°44'0 0.0
2015-Jul-26 10:33N 51°56' E 003°44'0 0.0
2015-Jul-26 09:33N 51°56' E 003°44'0 0.0
2015-Jul-26 08:34N 51°56' E 003°44'0 0.0
2015-Jul-26 07:34N 51°56' E 003°44'0 0.0
2015-Jul-26 06:33N 51°56' E 003°44'0 0.1
2015-Jul-26 05:34N 51°56' E 003°44'0 0.1
2015-Jul-26 04:33N 51°56' E 003°44'0 0.0
2015-Jul-26 03:33N 51°56' E 003°44'0 0.0
2015-Jul-26 02:33N 51°56' E 003°44'0 0.0
2015-Jul-26 01:33N 51°56' E 003°44'0 0.0
2015-Jul-26 00:33N 51°56' E 003°44'0 0.0
2015-Jul-25 23:33N 51°56' E 003°44'0 0.0
2015-Jul-25 22:34N 51°56' E 003°44'0 0.0
2015-Jul-25 21:34N 51°56' E 003°44'0 0.0
2015-Jul-25 20:33N 51°56' E 003°44'0 0.0
2015-Jul-25 19:34N 51°56' E 003°44'0 0.3
2015-Jul-25 18:33N 51°57' E 003°44'7 7.2
2015-Jul-25 17:33N 51°56' E 003°32'44 5.4
2015-Jul-25 09:29N 51°30' E 002°35'5 4.9
2015-Jul-25 08:34N 51°25' E 002°34'5 4.2
2015-Jul-25 07:29N 51°21' E 002°33'1 0.9
2015-Jul-25 06:33N 51°20' E 002°32'0 0.1
2015-Jul-25 05:33N 51°20' E 002°32'0 0.2
2015-Jul-25 04:28N 51°20' E 002°32'0 0.4
2015-Jul-25 03:31N 51°20' E 002°32'0 0.0
2015-Jul-25 02:28N 51°20' E 002°31'0 0.1
2015-Jul-25 01:28N 51°20' E 002°31'0 0.0
2015-Jul-25 00:31N 51°20' E 002°31'0 0.1
2015-Jul-24 23:31N 51°20' E 002°31'0 0.0
2015-Jul-24 22:31N 51°20' E 002°31'0 0.0
2015-Jul-24 21:28N 51°20' E 002°31'0 0.1
2015-Jul-24 20:31N 51°20' E 002°31'0 0.1
2015-Jul-24 19:31N 51°20' E 002°31'0 0.0
2015-Jul-24 18:31N 51°20' E 002°31'0 0.0
2015-Jul-24 17:31N 51°20' E 002°31'0 0.0
2015-Jul-24 16:28N 51°20' E 002°31'0 0.0
2015-Jul-24 15:31N 51°20' E 002°31'0 0.0
2015-Jul-24 14:31N 51°20' E 002°31'0 0.0
2015-Jul-24 13:31N 51°20' E 002°31'0 0.0
2015-Jul-24 12:31N 51°20' E 002°31'0 0.0
2015-Jul-24 11:31N 51°20' E 002°31'0 0.0
2015-Jul-24 10:31N 51°20' E 002°31'0 0.0
2015-Jul-24 09:31N 51°20' E 002°31'0 0.0
2015-Jul-24 08:28N 51°20' E 002°31'0 0.0
2015-Jul-24 07:31N 51°20' E 002°31'0 0.0
2015-Jul-24 06:31N 51°20' E 002°32'0 0.0
2015-Jul-24 05:28N 51°20' E 002°32'0 0.0
2015-Jul-24 04:31N 51°20' E 002°32'0 0.0
2015-Jul-24 03:31N 51°20' E 002°32'0 0.1
2015-Jul-24 02:31N 51°20' E 002°31'0 0.0
2015-Jul-24 01:31N 51°20' E 002°31'0 0.0
2015-Jul-24 00:31N 51°20' E 002°31'0 0.0
2015-Jul-23 23:31N 51°20' E 002°31'0 0.1
2015-Jul-23 22:28N 51°20' E 002°32'0 0.0
2015-Jul-23 21:28N 51°20' E 002°32'0 0.0
2015-Jul-23 20:28N 51°20' E 002°32'0 0.0
2015-Jul-23 19:31N 51°20' E 002°32'0 0.0
2015-Jul-23 18:31N 51°20' E 002°32'0 0.0
2015-Jul-23 17:31N 51°20' E 002°32'0 0.0
2015-Jul-23 16:28N 51°20' E 002°32'0 0.0
2015-Jul-23 15:25N 51°20' E 002°32'0 0.0
2015-Jul-23 14:31N 51°20' E 002°32'0 0.1
2015-Jul-23 13:31N 51°20' E 002°31'0 0.0
2015-Jul-23 12:31N 51°20' E 002°31'0 0.0
2015-Jul-23 11:31N 51°20' E 002°31'0 0.0
2015-Jul-23 10:31N 51°20' E 002°31'0 0.0
2015-Jul-23 09:31N 51°20' E 002°31'0 0.1
2015-Jul-23 08:31N 51°20' E 002°32'0 0.0
2015-Jul-23 07:31N 51°20' E 002°32'0 0.0
2015-Jul-23 06:31N 51°20' E 002°32'0 0.0
2015-Jul-23 05:13N 51°20' E 002°32'0 0.0
2015-Jul-23 04:28N 51°20' E 002°32'0 0.0
2015-Jul-23 03:31N 51°20' E 002°32'0 0.0
2015-Jul-23 02:31N 51°20' E 002°32'0 0.1
2015-Jul-23 01:31N 51°20' E 002°31'0 0.0
2015-Jul-23 00:31N 51°20' E 002°31'0 0.0
2015-Jul-22 23:31N 51°20' E 002°31'0 0.1
2015-Jul-22 22:28N 51°20' E 002°32'0 0.0
2015-Jul-22 21:31N 51°20' E 002°32'0 0.0
2015-Jul-22 20:28N 51°20' E 002°32'0 0.0
2015-Jul-22 19:31N 51°20' E 002°32'0 0.0
2015-Jul-22 18:31N 51°20' E 002°32'0 0.0
2015-Jul-22 17:31N 51°20' E 002°32'0 0.0
2015-Jul-22 16:28N 51°20' E 002°32'0 0.0
2015-Jul-22 15:33N 51°20' E 002°32'0 0.0
2015-Jul-22 14:33N 51°20' E 002°32'0 0.0
2015-Jul-22 13:33N 51°20' E 002°32'0 0.1
2015-Jul-22 12:33N 51°20' E 002°31'0 0.0
2015-Jul-22 11:33N 51°20' E 002°31'0 0.0
2015-Jul-22 10:33N 51°20' E 002°31'0 0.1
2015-Jul-22 09:33N 51°20' E 002°32'0 0.0
2015-Jul-22 08:33N 51°20' E 002°32'0 0.0
2015-Jul-22 07:24N 51°20' E 002°32'0 0.0
2015-Jul-22 06:33N 51°20' E 002°32'0 0.0
2015-Jul-22 05:33N 51°20' E 002°32'0 0.0
2015-Jul-22 04:33N 51°20' E 002°32'0 0.0
2015-Jul-22 03:30N 51°20' E 002°32'0 0.0
2015-Jul-22 02:33N 51°20' E 002°32'0 0.0
2015-Jul-22 01:33N 51°20' E 002°32'0 0.1
2015-Jul-22 00:33N 51°20' E 002°31'0 0.0
2015-Jul-21 23:33N 51°20' E 002°31'0 0.1
2015-Jul-21 22:33N 51°20' E 002°32'0 0.0
2015-Jul-21 21:33N 51°20' E 002°32'0 0.0
2015-Jul-21 20:33N 51°20' E 002°32'0 0.0
2015-Jul-21 19:33N 51°20' E 002°32'0 0.0
2015-Jul-21 18:33N 51°20' E 002°32'0 0.0
2015-Jul-21 17:33N 51°20' E 002°32'0 0.0
2015-Jul-21 16:33N 51°20' E 002°32'0 0.0
2015-Jul-21 15:33N 51°20' E 002°32'0 0.0
2015-Jul-21 14:33N 51°20' E 002°32'0 0.0
2015-Jul-21 13:30N 51°20' E 002°32'3 2.8
2015-Jul-21 12:33N 51°20' E 002°36'1110.9
2015-Jul-21 11:33N 51°22' E 002°53'1211.9
2015-Jul-21 10:34N 51°23' E 003°12'1312.5
2015-Jul-21 09:33N 51°25' E 003°31'7 6.5
2015-Jul-21 08:31N 51°27' E 003°42'0 0.0
2015-Jul-21 07:31N 51°27' E 003°42'0 0.0
2015-Jul-21 06:31N 51°27' E 003°42'0 0.0
2015-Jul-21 05:31N 51°27' E 003°42'0 0.0
2015-Jul-21 04:34N 51°27' E 003°42'0 0.0
2015-Jul-21 03:34N 51°27' E 003°42'0 0.0
2015-Jul-21 02:33N 51°27' E 003°42'0 0.0
2015-Jul-21 01:34N 51°27' E 003°42'0 0.0
2015-Jul-21 00:34N 51°27' E 003°42'0 0.0
2015-Jul-20 23:34N 51°27' E 003°42'0 0.0
2015-Jul-20 22:34N 51°27' E 003°42'0 0.0
2015-Jul-20 21:34N 51°27' E 003°42'0 0.0
2015-Jul-20 20:34N 51°27' E 003°42'0 0.0
2015-Jul-20 19:34N 51°27' E 003°42'1 1.2
2015-Jul-20 18:34N 51°27' E 003°40'8 8.5
2015-Jul-20 17:33N 51°25' E 003°27'1110.6
2015-Jul-20 16:33N 51°24' E 003°10'1111.2
2015-Jul-20 15:33N 51°22' E 002°52'7 7.5
2015-Jul-20 14:33N 51°22' E 002°40'8 8.2
2015-Jul-20 13:31N 51°21' E 002°27'1010.3
2015-Jul-20 12:34N 51°16' E 002°13'9 9.1
2015-Jul-20 11:33N 51°11' E 002°01'8 7.9
2015-Jul-20 10:33N 51°07' E 001°50'7 7.2
2015-Jul-20 09:33N 51°02' E 001°41'7 7.1
2015-Jul-20 08:34N 50°57' E 001°34'108 9.8
2015-Jul-19 21:27N 50°08' W 000°58'1112.7
2015-Jul-19 20:33N 50°05' W 001°16'1211.5
2015-Jul-19 19:33N 50°02' W 001°33'1010.0
2015-Jul-19 18:33N 49°60' W 001°48'9 8.4
2015-Jul-19 17:32N 49°57' W 002°01'7 7.0
2015-Jul-19 16:33N 49°55' W 002°11'  

Dump ship's entire track history